Destinations Bilbao Airport

Bilbao Airport (LEBB / BIO)

Flights to Bilbao Airport

Flight number From ETE Dispatch
SPY-2312 EGFF Cardiff International Airport 01:50
SPY-402 EHGG Groningen Airport Eelde 02:30

Flights from Bilbao Airport

Flight number To ETE Dispatch
SPY-2313 EGFF Cardiff International Airport 01:50
SPY-403 EHGG Groningen Airport Eelde
About

Bilbao Airport facts

Bilbao Airport is located in Bilbao at an elevation of 42.1 meters or 138 feet.

Currently, Speedy Airlines serves 4 flights to and from Bilbao Airport.

Detailed airport info

Route map

Weather

Current weather

METAR

METAR

Metar data retrieved Sunday, 21 July 2024 at 19:25 UTC

LEBB 211900Z 32005KT 280V350 9999 FEW033 BKN046 20/13 Q1022 NOSIG
Wind Temperature
5 kt 20c